• Join FlightAware (Why Join?)
  • Login
  • US Flag 
01:11AM EDT


 

Airport Tracker/Info


-or-


 

Live Flight TrackerFlight Track Log ✈ UPS1295 ✈ 20-Mar-2014 ✈ KGSP - KSDF

Flight Track Log - Related Links

Times and Time Zones

All times are in EDT time to prevent confusion due to time zone crossing. See the UPS1295 flight status page for this flight to view local times or setup timezone preferences in your user account.

Time Position Orientation Groundspeed Altitude Reporting Facility
EDT Latitude Longitude Course Direction KTS MPH feet Rate Location/Type
11:32PM 35.0231 -82.1136 North 256 295 6,800  Level Atlanta Center
11:33PM 35.0847 -82.0564 37° Northeast 268 308 9,500 2,280 Climbing Atlanta Center
11:34PM 35.1525 -81.9864 40° Northeast 288 331 11,400 2,700 Climbing Atlanta Center
11:35PM 35.2458 -81.9558 15° North 321 369 14,900 3,780 Climbing Atlanta Center
11:36PM 35.2245 -81.9333 North  Level FlightAware Approximate
11:36PM 35.3200 -82.0331 320° Northwest 296 341 19,000  Level Atlanta Center
11:37PM 35.3883 -82.1181 315° West 312 359 22,400 3,120 Climbing Atlanta Center
11:38PM 35.4606 -82.2081 315° West 335 386 25,300 2,940 Climbing Atlanta Center
11:39PM 35.5369 -82.2983 316° Northwest 364 419 28,300 2,400 Climbing Atlanta Center
11:40PM 35.6092 -82.3861 315° West 370 426 30,100 900 Climbing Atlanta Center
11:41PM 35.6853 -82.4767 316° Northwest 370 426 30,100  Level Atlanta Center
11:42PM 35.7636 -82.5722 315° West 370 426 30,100  Level Atlanta Center
11:43PM 35.8378 -82.6606 316° Northwest 370 426 30,100  Level Atlanta Center
11:44PM 35.9117 -82.7517 315° West 370 426 30,100  Level Atlanta Center
11:45PM 35.9858 -82.8428 315° West 370 426 30,100  Level Atlanta Center
11:46PM 36.0594 -82.9342 315° West 370 426 30,100  Level Atlanta Center
11:47PM 36.1333 -83.0258 315° West 375 432 30,100  Level Atlanta Center
11:48PM 36.2008 -83.1097 315° West 375 432 30,100  Level Atlanta Center
11:49PM 36.2764 -83.2017 316° Northwest 375 432 30,100  Level Atlanta Center
11:51PM 36.3997 -83.3522 316° Northwest 378 435 30,100  Level Indianapolis Center
11:52PM 36.4742 -83.4450 315° West 378 435 30,100  Level Indianapolis Center
11:53PM 36.5511 -83.5411 315° West 378 435 30,100  Level Indianapolis Center
11:54PM 36.6231 -83.6314 315° West 377 434 30,100 -60 Level Indianapolis Center
11:55PM 36.6967 -83.7242 315° West 377 434 30,000 -600 Descending Indianapolis Center
11:56PM 36.7700 -83.8167 315° West 375 432 28,900 -1,080 Descending Indianapolis Center
11:57PM 36.8436 -83.9094 315° West 375 432 27,800 -1,140 Descending Indianapolis Center
11:58PM 36.9172 -84.0025 315° West 375 432 26,600 -1,200 Descending Indianapolis Center
11:59PM 36.9911 -84.0967 315° West 376 433 25,400 -1,140 Descending Indianapolis Center
12:00AM 37.0656 -84.1922 314° West 377 434 24,300 -720 Descending Indianapolis Center
12:01AM 37.1406 -84.2881 314° West 384 442 24,000 -960 Descending Indianapolis Center
12:02AM 37.2256 -84.3969 314° West 373 429 22,400 -1,320 Descending Indianapolis Center
12:03AM 37.2975 -84.4897 314° West 372 428 21,400 -1,860 Descending Indianapolis Center
12:09AM 37.6821 -84.9914 312° West 250 288 9,900 -1,680 Descending FlightAware ADS-B (KBRY)
12:10AM 37.7291 -85.0566 312° West 248 285 9,900  Level FlightAware ADS-B (KBRY)
12:11AM 37.7723 -85.1226 293° West 247 284 9,900 -660 Level FlightAware ADS-B (KBRY)
12:12AM 37.8007 -85.2012 295° West 244 281 8,600 -1,440 Descending FlightAware ADS-B (KBRY)
12:13AM 37.8302 -85.2796 296° West 250 288 7,000 -1,500 Descending FlightAware ADS-B (KBRY)
12:14AM 37.8618 -85.3586 298° West 247 284 5,600 -1,440 Descending FlightAware ADS-B (KBRY)
12:15AM 37.8949 -85.4332 301° West 249 287 4,200 -1,380 Descending FlightAware ADS-B (KBRY)
12:16AM 37.9316 -85.5086 302° West 250 288 2,900 -660 Descending FlightAware ADS-B (KBRY)
12:17AM 37.9609 -85.5847 269° West 218 251 2,900  Level FlightAware ADS-B (KBRY)
12:18AM 37.9711 -85.6444 326° Northwest 181 208 2,900  Level FlightAware ADS-B (KBRY)
12:19AM 38.0168 -85.6734 344° North 189 217 2,900 -300 Level FlightAware ADS-B (KBRY)
12:20AM 38.0674 -85.6904 345° North 188 216 2,400 -720 Descending FlightAware ADS-B (KBRY)
12:21AM 38.1118 -85.7056 345° North 150 173 1,500 -960 Descending FlightAware ADS-B (KBRY)
12:21AM 38.1345 -85.7134 345° North 152 175 1,000 -960 Descending FlightAware ADS-B (KBRY)
12:29AM 38.1667 -85.7333 208° Southwest  Level FlightAware Approximate
12:30AM 38.1741 -85.7365 208° Southwest  Level Estimated